Time;durP1;ratioP1;P1;durP2;ratioP2;P2;SDS_P1;SDS_P2;PMS_P1;PMS_P2;Temp;Humidity;BMP_temperature;BMP_pressure;BME280_temperature;BME280_humidity;BME280_pressure;Samples;Min_cycle;Max_cycle;Signal;HPM_P1;HPM_P2
2022/03/10 00:01:35;;;;;;;;;;;;;;;2.61;57.59;100654.09;6214960;23;19912;-85
2022/03/10 00:04:00;;;;;;;;;;;;;;;2.56;57.88;100653.59;6214941;23;19916;-84
2022/03/10 00:06:25;;;;;;;;;;;;;;;2.49;58.12;100656.22;6214727;23;20307;-84
2022/03/10 00:08:51;;;;;;;;;;;;;;;2.47;58.02;100639.41;6214991;23;19920;-84
2022/03/10 00:11:16;;;;;;;;;;;;;;;2.39;58.28;100646.69;6188050;23;20258;-84
2022/03/10 00:13:42;;;;;;;;;;;;;;;2.33;58.50;100648.16;6215082;23;19931;-84
2022/03/10 00:16:07;;;;;;;;;;;;;;;2.28;58.73;100649.25;6214654;23;19916;-84
2022/03/10 00:18:33;;;;;;;;;;;;;;;2.21;59.13;100645.63;6215035;23;19920;-85
2022/03/10 00:20:58;;;;;;;;;;;;;;;2.19;59.26;100636.97;6214870;23;19916;-85
2022/03/10 00:23:23;;;;;;;;;;;;;;;2.18;59.25;100647.16;6214006;23;19916;-84
2022/03/10 00:25:49;;;;;;;;;;;;;;;2.10;59.56;100639.97;6215051;23;19912;-84
2022/03/10 00:28:14;;;;;;;;;;;;;;;2.02;60.23;100653.91;6214935;23;20365;-84
2022/03/10 00:30:40;;;;;;;;;;;;;;;2.05;60.00;100650.44;6214490;23;20335;-84
2022/03/10 00:33:05;;;;;;;;;;;;;;;2.01;60.35;100650.38;6214680;23;19995;-84
2022/03/10 00:35:30;;;;;;;;;;;;;;;2.00;60.34;100650.72;6215135;23;19923;-84
2022/03/10 00:37:56;;;;;;;;;;;;;;;2.00;60.37;100656.19;6214729;23;19923;-84
2022/03/10 00:40:23;;;;;;;;;;;;;;;2.01;60.55;100657.78;6188604;23;20239;-84
2022/03/10 00:42:49;;;;;;;;;;;;;;;2.05;60.43;100655.91;6214798;23;19916;-84
2022/03/10 00:45:14;;;;;;;;;;;;;;;2.08;60.19;100653.22;6214839;23;20215;-84
2022/03/10 00:47:40;;;;;;;;;;;;;;;2.13;60.07;100649.38;6214293;23;20401;-84
2022/03/10 00:50:06;;;;;;;;;;;;;;;2.16;60.13;100649.44;6214858;23;19926;-85
2022/03/10 00:52:32;;;;;;;;;;;;;;;2.20;59.83;100657.72;6188083;23;19988;-85
2022/03/10 00:54:58;;;;;;;;;;;;;;;2.23;59.90;100651.50;6214730;23;19915;-84
2022/03/10 00:57:23;;;;;;;;;;;;;;;2.25;59.65;100657.41;6214273;23;19922;-84
2022/03/10 00:59:48;;;;;;;;;;;;;;;2.26;59.74;100648.06;6214270;23;19919;-84
2022/03/10 01:02:14;;;;;;;;;;;;;;;2.21;59.88;100657.34;6214682;23;19923;-84
2022/03/10 01:04:39;;;;;;;;;;;;;;;2.22;59.90;100658.16;6162897;23;19920;-84
2022/03/10 01:07:04;;;;;;;;;;;;;;;2.20;59.84;100654.97;6214312;23;19958;-84
2022/03/10 01:09:30;;;;;;;;;;;;;;;2.18;59.96;100663.56;6214401;23;20334;-85
2022/03/10 01:11:55;;;;;;;;;;;;;;;2.11;60.26;100668.09;6214438;23;19961;-84
2022/03/10 01:14:21;;;;;;;;;;;;;;;2.01;60.64;100671.47;6214468;23;20305;-85
2022/03/10 01:16:46;;;;;;;;;;;;;;;1.88;61.11;100671.63;6214179;23;19916;-84
2022/03/10 01:19:12;;;;;;;;;;;;;;;1.80;61.47;100677.34;6214078;23;19943;-84
2022/03/10 01:21:37;;;;;;;;;;;;;;;1.72;61.68;100673.69;6214457;23;20242;-85
2022/03/10 01:24:03;;;;;;;;;;;;;;;1.66;61.95;100669.63;6214649;23;19998;-84
2022/03/10 01:26:28;;;;;;;;;;;;;;;1.57;62.25;100674.56;6214534;23;19922;-85
2022/03/10 01:28:53;;;;;;;;;;;;;;;1.50;62.52;100676.38;6213556;23;19927;-84
2022/03/10 01:31:19;;;;;;;;;;;;;;;1.43;62.66;100671.53;6213791;23;19923;-87
2022/03/10 01:33:45;;;;;;;;;;;;;;;1.38;62.98;100674.53;6213260;23;19922;-84
2022/03/10 01:36:10;;;;;;;;;;;;;;;1.31;63.08;100677.94;6213819;23;19923;-83
2022/03/10 01:38:39;;;;;;;;;;;;;;;1.23;63.25;100678.13;6162365;23;20322;-84
2022/03/10 01:41:05;;;;;;;;;;;;;;;1.16;63.86;100680.72;6214421;23;19986;-84
2022/03/10 01:43:31;;;;;;;;;;;;;;;1.15;63.95;100685.41;6214405;23;20334;-84
2022/03/10 01:45:57;;;;;;;;;;;;;;;1.15;64.03;100676.41;6213904;23;19915;-85
2022/03/10 01:48:22;;;;;;;;;;;;;;;1.14;63.98;100685.75;6213647;23;19918;-84
2022/03/10 01:50:48;;;;;;;;;;;;;;;1.12;64.32;100679.84;6213580;23;19923;-83
2022/03/10 01:53:13;;;;;;;;;;;;;;;1.12;64.44;100683.38;6214009;23;19915;-85
2022/03/10 01:55:39;;;;;;;;;;;;;;;1.13;64.35;100684.19;6187494;23;19978;-86
2022/03/10 01:58:05;;;;;;;;;;;;;;;1.10;64.52;100676.69;6213874;23;19916;-85
2022/03/10 02:03:12;;;;;;;;;;;;;;;1.03;64.60;100673.81;6217948;22;19973;-79
2022/03/10 02:05:38;;;;;;;;;;;;;;;0.98;64.77;100665.88;6242460;23;19958;-79
2022/03/10 02:10:47;;;;;;;;;;;;;;;0.88;65.09;100689.88;6219290;23;19922;-79
2022/03/10 02:13:13;;;;;;;;;;;;;;;0.84;65.51;100689.03;6242567;23;19994;-79
2022/03/10 02:18:23;;;;;;;;;;;;;;;0.82;65.77;100701.44;6242370;23;19922;-79
2022/03/10 02:20:48;;;;;;;;;;;;;;;0.78;65.95;100695.88;6242190;23;19982;-79
2022/03/10 02:23:14;;;;;;;;;;;;;;;0.81;65.89;100702.59;6241087;23;19946;-86
2022/03/10 02:25:40;;;;;;;;;;;;;;;0.78;66.05;100698.63;6240420;23;19935;-87
2022/03/10 02:28:05;;;;;;;;;;;;;;;0.78;66.16;100700.56;6213084;23;20249;-87
2022/03/10 02:30:31;;;;;;;;;;;;;;;0.78;66.13;100708.75;6240383;23;20061;-86
2022/03/10 02:32:57;;;;;;;;;;;;;;;0.77;66.10;100713.41;6211637;23;19915;-87
2022/03/10 02:35:23;;;;;;;;;;;;;;;0.81;65.96;100717.00;6241623;23;19915;-87
2022/03/10 02:37:48;;;;;;;;;;;;;;;0.76;66.10;100720.03;6213940;23;19926;-80
2022/03/10 02:40:13;;;;;;;;;;;;;;;0.74;66.17;100711.41;6214911;23;19938;-87
2022/03/10 02:42:39;;;;;;;;;;;;;;;0.74;66.22;100722.31;6240487;23;19911;-79
2022/03/10 02:45:05;;;;;;;;;;;;;;;0.75;66.17;100723.91;6217009;23;19916;-79
2022/03/10 02:47:30;;;;;;;;;;;;;;;0.76;66.44;100730.97;6242467;23;19919;-79
2022/03/10 02:49:56;;;;;;;;;;;;;;;0.74;66.28;100722.31;6242617;23;19916;-79
2022/03/10 02:52:21;;;;;;;;;;;;;;;0.75;66.57;100725.84;6243529;23;19939;-79
2022/03/10 02:54:47;;;;;;;;;;;;;;;0.72;66.63;100735.56;6216421;23;20019;-79
2022/03/10 02:57:12;;;;;;;;;;;;;;;0.72;66.42;100734.75;6243128;23;19915;-86
2022/03/10 02:59:38;;;;;;;;;;;;;;;0.71;66.53;100731.22;6216656;23;19962;-86
2022/03/10 03:02:04;;;;;;;;;;;;;;;0.73;66.58;100737.09;6242524;23;19915;-87
2022/03/10 03:04:29;;;;;;;;;;;;;;;0.74;66.38;100730.50;6214970;23;19920;-85
2022/03/10 03:06:54;;;;;;;;;;;;;;;0.69;66.69;100741.69;6215242;23;19926;-86
2022/03/10 03:09:20;;;;;;;;;;;;;;;0.68;66.74;100736.59;6242094;23;20352;-87
2022/03/10 03:11:45;;;;;;;;;;;;;;;0.66;66.88;100739.69;6190646;23;19918;-87
2022/03/10 03:14:11;;;;;;;;;;;;;;;0.67;66.99;100746.72;6243708;23;19951;-86
2022/03/10 03:16:37;;;;;;;;;;;;;;;0.66;66.99;100736.94;6241978;23;19919;-87
2022/03/10 03:19:02;;;;;;;;;;;;;;;0.67;66.99;100743.22;6243253;23;19998;-86
2022/03/10 03:21:31;;;;;;;;;;;;;;;0.65;67.11;100740.06;6242980;23;19912;-86
2022/03/10 03:23:56;;;;;;;;;;;;;;;0.67;66.96;100738.53;6241509;23;19916;-87
2022/03/10 03:26:21;;;;;;;;;;;;;;;0.73;66.73;100742.56;6215859;23;19915;-87
2022/03/10 03:28:47;;;;;;;;;;;;;;;0.78;66.52;100745.03;6215686;23;19912;-87
2022/03/10 03:31:12;;;;;;;;;;;;;;;0.76;66.49;100744.63;6241996;23;19920;-87
2022/03/10 03:33:38;;;;;;;;;;;;;;;0.77;66.53;100746.19;6215564;23;19991;-87
2022/03/10 03:36:03;;;;;;;;;;;;;;;0.77;66.57;100748.16;6242333;23;19916;-88
2022/03/10 03:38:29;;;;;;;;;;;;;;;0.71;66.81;100761.25;6215868;23;19920;-79
2022/03/10 03:40:54;;;;;;;;;;;;;;;0.67;66.99;100760.38;6214648;23;20377;-79
2022/03/10 03:43:19;;;;;;;;;;;;;;;0.65;67.04;100764.63;6214740;23;19915;-79
2022/03/10 03:45:45;;;;;;;;;;;;;;;0.61;66.98;100761.78;6215479;23;19915;-79
2022/03/10 03:48:10;;;;;;;;;;;;;;;0.58;67.28;100767.94;6241938;23;19938;-79
2022/03/10 03:50:36;;;;;;;;;;;;;;;0.58;67.28;100773.41;6241540;23;19942;-79
2022/03/10 03:53:01;;;;;;;;;;;;;;;0.59;67.23;100774.22;6242283;23;19957;-80
2022/03/10 03:55:27;;;;;;;;;;;;;;;0.60;67.22;100768.41;6242536;23;19922;-79
2022/03/10 03:57:52;;;;;;;;;;;;;;;0.59;67.38;100780.47;6242248;23;19915;-86
2022/03/10 04:00:18;;;;;;;;;;;;;;;0.62;67.24;100777.03;6217611;23;19931;-87
2022/03/10 04:02:44;;;;;;;;;;;;;;;0.68;67.10;100777.56;6243294;23;19915;-86
2022/03/10 04:05:10;;;;;;;;;;;;;;;0.68;66.99;100778.34;6244148;23;19990;-85
2022/03/10 04:07:35;;;;;;;;;;;;;;;0.74;66.78;100781.59;6216450;23;19919;-87
2022/03/10 04:10:01;;;;;;;;;;;;;;;0.79;66.52;100784.88;6192240;23;19974;-86
2022/03/10 04:12:26;;;;;;;;;;;;;;;0.83;66.54;100791.22;6244416;23;19916;-87
2022/03/10 04:14:51;;;;;;;;;;;;;;;0.84;66.28;100792.00;6244367;23;19920;-79
2022/03/10 04:17:17;;;;;;;;;;;;;;;0.87;66.36;100791.28;6243803;23;19915;-79
2022/03/10 04:19:42;;;;;;;;;;;;;;;0.88;66.18;100787.41;6244258;23;19950;-79
2022/03/10 04:22:08;;;;;;;;;;;;;;;0.94;65.99;100797.72;6243741;23;20336;-80
2022/03/10 04:24:34;;;;;;;;;;;;;;;0.99;65.69;100801.31;6244360;23;19919;-79
2022/03/10 04:27:00;;;;;;;;;;;;;;;1.01;65.54;100807.25;6243239;23;19923;-79
2022/03/10 04:29:25;;;;;;;;;;;;;;;1.05;65.39;100808.91;6244671;23;19915;-79
2022/03/10 04:31:51;;;;;;;;;;;;;;;1.09;65.54;100814.47;6243809;23;19942;-80
2022/03/10 04:34:16;;;;;;;;;;;;;;;1.14;65.17;100819.63;6244807;23;20316;-87
2022/03/10 04:36:42;;;;;;;;;;;;;;;1.19;65.08;100822.09;6244049;23;19912;-87
2022/03/10 04:39:07;;;;;;;;;;;;;;;1.25;64.84;100828.91;6243808;23;19931;-87
2022/03/10 04:41:34;;;;;;;;;;;;;;;1.33;64.53;100831.44;6243182;23;20013;-87
2022/03/10 04:43:59;;;;;;;;;;;;;;;1.36;64.20;100830.72;6243153;23;19966;-87
2022/03/10 04:46:25;;;;;;;;;;;;;;;1.39;64.12;100834.69;6244223;23;19919;-86
2022/03/10 04:48:50;;;;;;;;;;;;;;;1.42;64.40;100841.41;6243447;23;19919;-86
2022/03/10 04:51:16;;;;;;;;;;;;;;;1.41;64.25;100837.88;6217096;23;19920;-80
2022/03/10 04:53:41;;;;;;;;;;;;;;;1.46;64.19;100845.78;6243653;23;19915;-79
2022/03/10 04:56:07;;;;;;;;;;;;;;;1.46;64.27;100840.31;6192303;23;20414;-79
2022/03/10 04:58:32;;;;;;;;;;;;;;;1.48;64.16;100842.69;6243194;23;19982;-79
2022/03/10 05:00:57;;;;;;;;;;;;;;;1.53;64.19;100843.22;6243222;23;19916;-79
2022/03/10 05:03:23;;;;;;;;;;;;;;;1.55;64.12;100843.63;6243426;23;20284;-79
2022/03/10 05:05:48;;;;;;;;;;;;;;;1.60;64.07;100850.78;6242601;23;19916;-79
2022/03/10 05:08:14;;;;;;;;;;;;;;;1.65;63.80;100854.03;6242729;23;19939;-79
2022/03/10 05:10:39;;;;;;;;;;;;;;;1.65;64.13;100862.25;6243319;23;19923;-79
2022/03/10 05:13:04;;;;;;;;;;;;;;;1.68;64.06;100861.53;6243593;23;20409;-87
2022/03/10 05:15:33;;;;;;;;;;;;;;;1.70;63.60;100863.91;6244311;23;19915;-86
2022/03/10 05:17:58;;;;;;;;;;;;;;;1.73;63.95;100872.19;6243114;23;20024;-87
2022/03/10 05:20:25;;;;;;;;;;;;;;;1.75;64.01;100869.06;6242815;23;20349;-87
2022/03/10 05:22:51;;;;;;;;;;;;;;;1.78;63.82;100880.09;6242505;23;19915;-87
2022/03/10 05:25:17;;;;;;;;;;;;;;;1.79;63.92;100869.94;6243650;23;19926;-87
2022/03/10 05:27:43;;;;;;;;;;;;;;;1.80;63.78;100883.28;6217158;23;19959;-87
2022/03/10 05:30:08;;;;;;;;;;;;;;;1.84;63.77;100888.81;6243681;23;19923;-87
2022/03/10 05:32:34;;;;;;;;;;;;;;;1.87;63.92;100893.56;6243602;23;19911;-79
2022/03/10 05:35:02;;;;;;;;;;;;;;;1.89;63.83;100896.75;6243852;23;19915;-80
2022/03/10 05:37:28;;;;;;;;;;;;;;;1.93;63.45;100896.84;6244161;23;20292;-79
2022/03/10 05:39:54;;;;;;;;;;;;;;;1.97;63.50;100903.19;6244232;23;20274;-79
2022/03/10 05:42:19;;;;;;;;;;;;;;;1.99;63.46;100900.84;6244005;23;19915;-79
2022/03/10 05:44:44;;;;;;;;;;;;;;;2.04;63.29;100903.31;6243904;23;19942;-79
2022/03/10 05:47:10;;;;;;;;;;;;;;;2.08;63.06;100910.47;6241275;23;19986;-79
2022/03/10 05:49:36;;;;;;;;;;;;;;;2.12;62.85;100899.59;6242466;23;20257;-87
2022/03/10 05:52:01;;;;;;;;;;;;;;;2.17;62.85;100913.00;6241174;23;19916;-79
2022/03/10 05:54:27;;;;;;;;;;;;;;;2.22;62.95;100927.19;6242107;23;19916;-79
2022/03/10 05:56:53;;;;;;;;;;;;;;;2.28;62.45;100924.94;6214406;23;20456;-79
2022/03/10 05:59:19;;;;;;;;;;;;;;;2.37;62.55;100930.22;6241634;23;19958;-81
2022/03/10 06:01:45;;;;;;;;;;;;;;;2.43;62.29;100943.25;6241151;23;19942;-79
2022/03/10 06:04:10;;;;;;;;;;;;;;;2.51;62.21;100955.94;6215601;23;20245;-80
2022/03/10 06:06:36;;;;;;;;;;;;;;;2.62;61.59;100961.66;6215287;23;19915;-79
2022/03/10 06:09:02;;;;;;;;;;;;;;;2.72;61.43;100967.31;6241424;23;20387;-80
2022/03/10 06:11:27;;;;;;;;;;;;;;;2.83;61.11;100972.25;6215810;23;20359;-87
2022/03/10 06:13:53;;;;;;;;;;;;;;;2.91;60.66;100973.97;6240744;23;19918;-87
2022/03/10 06:16:18;;;;;;;;;;;;;;;2.99;60.69;100976.47;6242687;23;19970;-88
2022/03/10 06:18:44;;;;;;;;;;;;;;;3.05;60.44;100976.94;6241551;23;19916;-88
2022/03/10 06:21:09;;;;;;;;;;;;;;;3.09;60.32;100981.34;6244393;23;19911;-87
2022/03/10 06:23:34;;;;;;;;;;;;;;;3.14;59.97;100985.75;6244017;23;20325;-85
2022/03/10 06:26:00;;;;;;;;;;;;;;;3.15;59.92;100984.59;6244279;23;19970;-86
2022/03/10 06:28:25;;;;;;;;;;;;;;;3.14;59.74;100991.22;6244179;23;20253;-86
2022/03/10 06:30:51;;;;;;;;;;;;;;;3.13;59.78;100987.69;6243969;23;19915;-78
2022/03/10 06:33:16;;;;;;;;;;;;;;;3.19;59.82;100988.19;6243815;23;19923;-78
2022/03/10 06:35:41;;;;;;;;;;;;;;;3.17;59.29;100990.50;6244154;23;19947;-79
2022/03/10 06:38:08;;;;;;;;;;;;;;;3.15;59.54;100992.81;6243397;23;19947;-78
2022/03/10 06:40:34;;;;;;;;;;;;;;;3.17;59.59;101004.19;6243998;23;19947;-78
2022/03/10 06:42:59;;;;;;;;;;;;;;;3.19;59.15;100996.41;6243157;23;19923;-78
2022/03/10 06:45:25;;;;;;;;;;;;;;;3.21;59.48;101010.53;6215823;23;20213;-78
2022/03/10 06:47:50;;;;;;;;;;;;;;;3.24;59.00;101004.31;6243729;23;19922;-78
2022/03/10 06:50:16;;;;;;;;;;;;;;;3.22;59.46;101014.88;6244191;23;20320;-78
2022/03/10 06:52:42;;;;;;;;;;;;;;;3.25;59.35;101016.88;6243704;23;19919;-78
2022/03/10 06:55:07;;;;;;;;;;;;;;;3.32;59.07;101016.25;6242384;23;19915;-78
2022/03/10 06:57:33;;;;;;;;;;;;;;;3.36;58.80;101020.59;6242419;23;19913;-78
2022/03/10 06:59:58;;;;;;;;;;;;;;;3.38;58.53;101015.56;6215762;23;19927;-78
2022/03/10 07:02:24;;;;;;;;;;;;;;;3.43;58.45;101026.25;6242373;23;20293;-78
2022/03/10 07:04:49;;;;;;;;;;;;;;;3.43;58.16;101023.50;6242369;23;20049;-85
2022/03/10 07:07:14;;;;;;;;;;;;;;;3.51;58.40;101024.41;6242788;23;19943;-85
2022/03/10 07:09:41;;;;;;;;;;;;;;;3.56;58.30;101027.63;6216373;23;19994;-85
2022/03/10 07:12:07;;;;;;;;;;;;;;;3.63;58.14;101027.78;6243735;23;20342;-85
2022/03/10 07:14:33;;;;;;;;;;;;;;;3.67;57.75;101028.63;6243908;23;20296;-85
2022/03/10 07:16:58;;;;;;;;;;;;;;;3.70;58.14;101036.13;6243830;23;19919;-85
2022/03/10 07:19:23;;;;;;;;;;;;;;;3.74;57.62;101044.41;6243955;23;20257;-85
2022/03/10 07:21:51;;;;;;;;;;;;;;;3.82;57.91;101046.09;6217120;23;19922;-85
2022/03/10 07:24:16;;;;;;;;;;;;;;;3.93;57.85;101054.50;6243768;23;19911;-85
2022/03/10 07:26:42;;;;;;;;;;;;;;;3.97;57.53;101053.41;6244000;23;19922;-78
2022/03/10 07:29:07;;;;;;;;;;;;;;;4.08;57.73;101059.09;6243594;23;19919;-78
2022/03/10 07:31:33;;;;;;;;;;;;;;;4.17;57.05;101054.91;6243816;23;19919;-78
2022/03/10 07:33:58;;;;;;;;;;;;;;;4.18;56.43;101061.19;6245586;23;20293;-78
2022/03/10 07:36:24;;;;;;;;;;;;;;;4.24;56.70;101051.50;6245883;23;20283;-78
2022/03/10 07:38:49;;;;;;;;;;;;;;;4.34;56.43;101061.84;6245331;23;19947;-78
2022/03/10 07:41:14;;;;;;;;;;;;;;;4.47;56.38;101054.97;6245744;23;19915;-78
2022/03/10 07:43:40;;;;;;;;;;;;;;;4.63;56.50;101041.84;6245873;23;19965;-78
2022/03/10 07:46:06;;;;;;;;;;;;;;;4.92;55.66;101048.50;6245804;23;19916;-78
2022/03/10 07:48:32;;;;;;;;;;;;;;;5.27;54.43;101044.56;6218591;23;19930;-79
2022/03/10 07:51:01;;;;;;;;;;;;;;;5.46;52.97;101045.16;6245612;23;19998;-78
2022/03/10 07:53:26;;;;;;;;;;;;;;;5.60;53.13;101050.81;6218956;23;19943;-78
2022/03/10 07:55:55;;;;;;;;;;;;;;;5.60;52.24;101045.31;6245215;23;20395;-79
2022/03/10 07:58:25;;;;;;;;;;;;;;;5.79;51.24;101055.31;6245725;23;19962;-79
2022/03/10 08:00:54;;;;;;;;;;;;;;;5.94;51.22;101050.75;6245472;23;19920;-78
2022/03/10 08:03:19;;;;;;;;;;;;;;;6.15;51.14;101048.16;6245189;23;20090;-79
2022/03/10 08:05:46;;;;;;;;;;;;;;;6.32;50.25;101047.50;6245487;23;20067;-86
2022/03/10 08:08:13;;;;;;;;;;;;;;;6.46;49.92;101044.84;6245109;23;19912;-86
2022/03/10 08:10:41;;;;;;;;;;;;;;;6.45;49.48;101047.97;6245166;23;19943;-86
2022/03/10 08:13:07;;;;;;;;;;;;;;;6.37;49.57;101049.09;6244960;23;19957;-86
2022/03/10 08:15:32;;;;;;;;;;;;;;;6.44;50.23;101055.44;6245646;23;19958;-86
2022/03/10 08:17:58;;;;;;;;;;;;;;;6.53;50.02;101068.88;6218053;23;20253;-86
2022/03/10 08:20:23;;;;;;;;;;;;;;;6.71;49.16;101057.97;6245656;23;19912;-86
2022/03/10 08:22:49;;;;;;;;;;;;;;;6.82;48.67;101037.53;6245349;23;20121;-87
2022/03/10 08:25:14;;;;;;;;;;;;;;;6.89;47.49;101053.31;6245162;23;20040;-87
2022/03/10 08:27:39;;;;;;;;;;;;;;;6.94;47.56;101052.94;6245520;23;19916;-84
2022/03/10 08:30:05;;;;;;;;;;;;;;;6.91;47.75;101048.22;6218255;23;20357;-86
2022/03/10 08:32:31;;;;;;;;;;;;;;;6.56;46.79;101057.88;6218510;23;19920;-85
2022/03/10 08:34:56;;;;;;;;;;;;;;;6.33;47.23;101053.78;6218128;23;19912;-85
2022/03/10 08:37:22;;;;;;;;;;;;;;;6.11;47.85;101061.09;6218362;23;19920;-85
2022/03/10 08:39:48;;;;;;;;;;;;;;;5.83;48.87;101066.34;6244698;23;19931;-85
2022/03/10 08:42:13;;;;;;;;;;;;;;;5.84;48.96;101065.19;6218399;23;19915;-86
2022/03/10 08:44:39;;;;;;;;;;;;;;;5.83;49.32;101061.63;6217457;23;20348;-86
2022/03/10 08:47:04;;;;;;;;;;;;;;;5.88;48.54;101057.78;6218412;23;20386;-85
2022/03/10 08:49:32;;;;;;;;;;;;;;;6.03;48.98;101059.47;6243055;23;19923;-86
2022/03/10 08:51:58;;;;;;;;;;;;;;;6.21;47.56;101068.66;6243471;23;19937;-86
2022/03/10 08:54:24;;;;;;;;;;;;;;;6.30;47.46;101069.13;6244348;23;20345;-86
2022/03/10 08:56:50;;;;;;;;;;;;;;;6.17;47.21;101075.31;6244098;23;20010;-85
2022/03/10 08:59:15;;;;;;;;;;;;;;;6.21;47.15;101076.94;6244416;23;19912;-85
2022/03/10 09:01:43;;;;;;;;;;;;;;;5.51;47.17;101080.59;6244424;23;19915;-79
2022/03/10 09:04:08;;;;;;;;;;;;;;;5.48;47.41;101084.13;6217815;23;19962;-79
2022/03/10 09:06:34;;;;;;;;;;;;;;;5.36;48.31;101084.38;6244147;23;20398;-79
2022/03/10 09:09:00;;;;;;;;;;;;;;;5.32;48.73;101080.00;6243659;23;19920;-79
2022/03/10 09:11:25;;;;;;;;;;;;;;;5.14;48.71;101088.81;6244256;23;19915;-79
2022/03/10 09:13:51;;;;;;;;;;;;;;;5.26;48.94;101079.53;6244055;23;20249;-79
2022/03/10 09:16:16;;;;;;;;;;;;;;;5.09;47.97;101086.44;6245435;23;19912;-79
2022/03/10 09:18:43;;;;;;;;;;;;;;;4.61;48.86;101101.88;6218035;23;19954;-80
2022/03/10 09:21:09;;;;;;;;;;;;;;;4.61;49.77;101109.34;6244930;23;19916;-79
2022/03/10 09:23:35;;;;;;;;;;;;;;;4.80;49.55;101095.47;6244604;23;20231;-79
2022/03/10 09:26:00;;;;;;;;;;;;;;;4.81;48.85;101107.25;6244462;23;19919;-79
2022/03/10 09:28:26;;;;;;;;;;;;;;;4.99;49.37;101100.81;6244669;23;20373;-79
2022/03/10 09:30:51;;;;;;;;;;;;;;;4.92;47.16;101106.25;6244270;23;19926;-79
2022/03/10 09:33:16;;;;;;;;;;;;;;;5.01;46.51;101109.50;6244512;23;19925;-79
2022/03/10 09:35:42;;;;;;;;;;;;;;;4.66;45.73;101112.53;6244904;23;19938;-79
2022/03/10 09:38:08;;;;;;;;;;;;;;;4.42;46.80;101112.97;6244216;23;19915;-79
2022/03/10 09:40:33;;;;;;;;;;;;;;;4.26;47.01;101109.56;6244899;23;19912;-85
2022/03/10 09:42:59;;;;;;;;;;;;;;;4.31;47.10;101122.22;6244190;23;19923;-85
2022/03/10 09:45:24;;;;;;;;;;;;;;;4.43;47.34;101120.06;6217577;23;19916;-85
2022/03/10 09:47:50;;;;;;;;;;;;;;;4.67;47.19;101108.66;6192404;23;19915;-85
2022/03/10 09:50:16;;;;;;;;;;;;;;;5.04;46.00;101105.22;6244487;23;20304;-85
2022/03/10 09:52:42;;;;;;;;;;;;;;;5.07;45.49;101104.44;6244398;23;19915;-85
2022/03/10 09:55:08;;;;;;;;;;;;;;;5.11;44.67;101102.53;6244099;23;19981;-85
2022/03/10 09:57:37;;;;;;;;;;;;;;;5.50;43.84;101101.03;6244149;23;19920;-85
2022/03/10 10:00:03;;;;;;;;;;;;;;;5.90;43.94;101107.75;6244170;23;19994;-79
2022/03/10 10:02:30;;;;;;;;;;;;;;;6.00;42.85;101104.31;6244089;23;19966;-79
2022/03/10 10:04:56;;;;;;;;;;;;;;;6.33;42.59;101098.69;6217241;23;20389;-79
2022/03/10 10:07:24;;;;;;;;;;;;;;;5.78;42.84;101111.56;6244729;23;20559;-79
2022/03/10 10:09:57;;;;;;;;;;;;;;;5.85;44.00;101116.34;6244139;23;19915;-79
2022/03/10 10:12:26;;;;;;;;;;;;;;;6.08;42.76;101116.97;6217167;23;19923;-79
2022/03/10 10:14:52;;;;;;;;;;;;;;;6.28;41.72;101112.81;6243836;23;20026;-79
2022/03/10 10:17:25;;;;;;;;;;;;;;;6.43;41.85;101111.72;6244495;23;20004;-79
2022/03/10 10:19:53;;;;;;;;;;;;;;;5.99;42.24;101122.78;6243972;23;20353;-85
2022/03/10 10:22:20;;;;;;;;;;;;;;;5.09;43.62;101122.19;6217454;23;19919;-85
2022/03/10 10:24:55;;;;;;;;;;;;;;;5.52;44.05;101123.47;6244089;23;19919;-85
2022/03/10 10:27:21;;;;;;;;;;;;;;;5.49;43.59;101117.94;6243890;23;19990;-85
2022/03/10 10:29:48;;;;;;;;;;;;;;;5.62;43.80;101125.53;6244242;23;20308;-85
2022/03/10 10:32:13;;;;;;;;;;;;;;;5.75;43.69;101125.25;6244144;23;19923;-85
2022/03/10 10:34:39;;;;;;;;;;;;;;;6.01;43.34;101127.94;6217107;23;19920;-85
2022/03/10 10:37:05;;;;;;;;;;;;;;;5.77;44.07;101128.44;6192273;23;19911;-86
2022/03/10 10:39:30;;;;;;;;;;;;;;;5.28;45.16;101125.94;6244012;23;19922;-86
2022/03/10 10:41:56;;;;;;;;;;;;;;;5.09;45.76;101135.13;6243967;23;19921;-85
2022/03/10 10:44:23;;;;;;;;;;;;;;;4.78;45.96;101135.47;6243632;23;19911;-85
2022/03/10 10:46:49;;;;;;;;;;;;;;;4.57;46.48;101136.75;6244174;23;19923;-85
2022/03/10 10:49:15;;;;;;;;;;;;;;;4.50;46.46;101144.88;6216669;23;19998;-85
2022/03/10 10:51:45;;;;;;;;;;;;;;;4.46;47.21;101130.31;6244151;23;19916;-85
2022/03/10 10:54:23;;;;;;;;;;;;;;;4.35;47.02;101145.03;6243559;23;20306;-85
2022/03/10 10:56:55;;;;;;;;;;;;;;;4.56;47.42;101135.19;6217909;23;19919;-85
2022/03/10 10:59:40;;;;;;;;;;;;;;;4.78;47.01;101130.78;6243515;23;20314;-85
2022/03/10 11:02:13;;;;;;;;;;;;;;;5.17;45.89;101128.56;6243566;23;20330;-85
2022/03/10 11:04:42;;;;;;;;;;;;;;;5.14;45.79;101121.03;6191683;23;19999;-85
2022/03/10 11:07:09;;;;;;;;;;;;;;;5.49;46.04;101115.97;6216680;23;19938;-85
2022/03/10 11:09:35;;;;;;;;;;;;;;;5.96;45.00;101120.00;6243812;23;20306;-86
2022/03/10 11:12:00;;;;;;;;;;;;;;;5.83;44.63;101119.47;6216784;23;19911;-85
2022/03/10 11:14:26;;;;;;;;;;;;;;;6.11;44.73;101110.69;6243745;23;19923;-86
2022/03/10 11:16:52;;;;;;;;;;;;;;;6.03;44.94;101112.59;6243712;23;19919;-85
2022/03/10 11:19:20;;;;;;;;;;;;;;;6.40;43.76;101109.75;6243611;23;20342;-85
2022/03/10 11:21:51;;;;;;;;;;;;;;;6.41;44.09;101105.81;6244289;23;19916;-86
2022/03/10 11:24:35;;;;;;;;;;;;;;;6.53;43.19;101108.28;6243726;23;20360;-85
2022/03/10 11:27:08;;;;;;;;;;;;;;;6.76;43.33;101087.91;6243749;23;19938;-86
2022/03/10 11:29:34;;;;;;;;;;;;;;;6.63;42.84;101100.47;6216509;23;19915;-85
2022/03/10 11:31:59;;;;;;;;;;;;;;;6.19;43.31;101098.56;6216934;23;20346;-79
2022/03/10 11:34:44;;;;;;;;;;;;;;;6.11;43.25;101104.41;6243749;23;19957;-86
2022/03/10 11:37:09;;;;;;;;;;;;;;;6.06;43.53;101102.78;6216913;23;19924;-85
2022/03/10 11:39:51;;;;;;;;;;;;;;;6.01;45.85;101097.63;6243212;23;19973;-85
2022/03/10 11:42:24;;;;;;;;;;;;;;;6.27;43.70;101105.69;6243888;23;19935;-85
2022/03/10 11:44:52;;;;;;;;;;;;;;;6.53;43.29;101091.72;6243445;23;20015;-85
2022/03/10 11:47:19;;;;;;;;;;;;;;;6.81;42.79;101096.63;6217308;23;19911;-85
2022/03/10 11:49:44;;;;;;;;;;;;;;;6.40;42.98;101098.72;6243509;23;19927;-86
2022/03/10 11:52:22;;;;;;;;;;;;;;;6.63;42.16;101086.69;6243473;23;19915;-85
2022/03/10 11:55:05;;;;;;;;;;;;;;;6.44;42.74;101094.03;6189641;23;20249;-86
2022/03/10 11:57:40;;;;;;;;;;;;;;;5.77;43.53;101092.66;6215864;23;20288;-85
2022/03/10 12:00:06;;;;;;;;;;;;;;;5.47;44.26;101101.78;6214503;23;19931;-85
2022/03/10 12:02:43;;;;;;;;;;;;;;;5.39;44.85;101100.13;6242054;23;19919;-86
2022/03/10 12:05:08;;;;;;;;;;;;;;;5.15;45.23;101101.41;6241953;23;19950;-86
2022/03/10 12:07:34;;;;;;;;;;;;;;;5.38;45.47;101097.75;6242482;23;19922;-85
2022/03/10 12:10:06;;;;;;;;;;;;;;;5.39;45.01;101100.13;6214013;23;19990;-86
2022/03/10 12:12:38;;;;;;;;;;;;;;;5.52;44.58;101104.19;6242136;23;19916;-85
2022/03/10 12:15:23;;;;;;;;;;;;;;;5.42;44.38;101102.13;6241739;23;19916;-85
2022/03/10 12:17:53;;;;;;;;;;;;;;;5.34;44.52;101103.19;6215462;23;19963;-85
2022/03/10 12:20:25;;;;;;;;;;;;;;;5.39;44.42;101097.38;6244000;23;19923;-86
2022/03/10 12:23:03;;;;;;;;;;;;;;;5.42;44.68;101088.34;6191431;23;19920;-85
2022/03/10 12:25:29;;;;;;;;;;;;;;;5.69;44.00;101088.25;6243375;23;19923;-86
2022/03/10 12:27:57;;;;;;;;;;;;;;;5.84;44.10;101093.50;6216851;23;20378;-85
2022/03/10 12:30:24;;;;;;;;;;;;;;;5.66;43.96;101097.28;6244539;23;20409;-86
2022/03/10 12:32:51;;;;;;;;;;;;;;;5.75;43.85;101095.78;6216205;23;20328;-79
2022/03/10 12:35:26;;;;;;;;;;;;;;;5.58;44.11;101091.66;6242481;23;19920;-79
2022/03/10 12:37:52;;;;;;;;;;;;;;;5.58;44.00;101088.91;6242987;23;19994;-79
2022/03/10 12:40:18;;;;;;;;;;;;;;;5.36;44.43;101089.88;6244073;23;19939;-80
2022/03/10 12:42:44;;;;;;;;;;;;;;;5.35;44.65;101093.78;6243797;23;19919;-79
2022/03/10 12:45:09;;;;;;;;;;;;;;;5.33;45.06;101093.38;6244374;23;19993;-79
2022/03/10 12:47:35;;;;;;;;;;;;;;;5.44;45.38;101097.03;6244726;23;20392;-79
2022/03/10 12:50:00;;;;;;;;;;;;;;;5.73;44.81;101092.63;6216772;23;19918;-79
2022/03/10 12:52:27;;;;;;;;;;;;;;;5.69;44.34;101091.00;6244237;23;19923;-79